地図

経路データ

SID SEASON NUMBER BASIN SUBBASIN NAME ISO_TIME NATURE LAT LON WMO_WIND WMO_PRES WMO_AGENCY TRACK_TYPE DIST2LAND LANDFALL IFLAG USA_AGENCY USA_ATCF_ID USA_LAT USA_LON USA_RECORD USA_STATUS USA_WIND USA_PRES USA_SSHS USA_R34_NE USA_R34_SE USA_R34_SW USA_R34_NW USA_R50_NE USA_R50_SE USA_R50_SW USA_R50_NW USA_R64_NE USA_R64_SE USA_R64_SW USA_R64_NW USA_POCI USA_ROCI USA_RMW USA_EYE TOKYO_LAT TOKYO_LON TOKYO_GRADE TOKYO_WIND TOKYO_PRES TOKYO_R50_DIR TOKYO_R50_LONG TOKYO_R50_SHORT TOKYO_R30_DIR TOKYO_R30_LONG TOKYO_R30_SHORT TOKYO_LAND CMA_LAT CMA_LON CMA_CAT CMA_WIND CMA_PRES HKO_LAT HKO_LON HKO_CAT HKO_WIND HKO_PRES NEWDELHI_LAT NEWDELHI_LON NEWDELHI_GRADE NEWDELHI_WIND NEWDELHI_PRES NEWDELHI_CI NEWDELHI_DP NEWDELHI_POCI REUNION_LAT REUNION_LON REUNION_TYPE REUNION_WIND REUNION_PRES REUNION_TNUM REUNION_CI REUNION_RMW REUNION_R34_NE REUNION_R34_SE REUNION_R34_SW REUNION_R34_NW REUNION_R50_NE REUNION_R50_SE REUNION_R50_SW REUNION_R50_NW REUNION_R64_NE REUNION_R64_SE REUNION_R64_SW REUNION_R64_NW BOM_LAT BOM_LON BOM_TYPE BOM_WIND BOM_PRES BOM_TNUM BOM_CI BOM_RMW BOM_R34_NE BOM_R34_SE BOM_R34_SW BOM_R34_NW BOM_R50_NE BOM_R50_SE BOM_R50_SW BOM_R50_NW BOM_R64_NE BOM_R64_SE BOM_R64_SW BOM_R64_NW BOM_ROCI BOM_POCI BOM_EYE BOM_POS_METHOD BOM_PRES_METHOD NADI_LAT NADI_LON NADI_CAT NADI_WIND NADI_PRES WELLINGTON_LAT WELLINGTON_LON WELLINGTON_WIND WELLINGTON_PRES DS824_LAT DS824_LON DS824_STAGE DS824_WIND DS824_PRES TD9636_LAT TD9636_LON TD9636_STAGE TD9636_WIND TD9636_PRES TD9635_LAT TD9635_LON TD9635_WIND TD9635_PRES TD9635_ROCI NEUMANN_LAT NEUMANN_LON NEUMANN_CLASS NEUMANN_WIND NEUMANN_PRES MLC_LAT MLC_LON MLC_CLASS MLC_WIND MLC_PRES USA_GUST BOM_GUST BOM_GUST_PER REUNION_GUST REUNION_GUST_PER USA_SEAHGT USA_SEARAD_NE USA_SEARAD_SE USA_SEARAD_SW USA_SEARAD_NW STORM_SPEED STORM_DIR
1904042S13056 1904 1 SI MM NOT_NAMED 1904-02-11 06:00:00 NR -13.1000 55.5000 reunion main 588 573 _____O________ -1 -13.1000 55.5000 99 9.90000 2 231
1904042S13056 1904 1 SI MM NOT_NAMED 1904-02-11 09:00:00 NR -13.1614 55.4153 main 573 564 _____P________ -1 -13.1614 55.4153 99 2 232
1904042S13056 1904 1 SI MM NOT_NAMED 1904-02-11 12:00:00 NR -13.2277 55.3268 main 564 549 _____P________ -1 -13.2277 55.3268 99 2 232
1904042S13056 1904 1 SI MM NOT_NAMED 1904-02-11 15:00:00 NR -13.3037 55.2306 main 549 535 _____P________ -1 -13.3037 55.2306 99 3 230
1904042S13056 1904 1 SI MM NOT_NAMED 1904-02-11 18:00:00 NR -13.3943 55.1230 main 535 520 _____P________ -1 -13.3943 55.1230 99 3 228
1904042S13056 1904 1 SI MM NOT_NAMED 1904-02-11 21:00:00 NR -13.5043 55.0000 main 520 506 _____P________ -1 -13.5043 55.0000 99 4 226
1904042S13056 1904 1 SI MM NOT_NAMED 1904-02-12 00:00:00 NR -13.6388 54.8578 main 506 478 _____P________ -1 -13.6388 54.8578 99 4 225
1904042S13056 1904 1 SI MM NOT_NAMED 1904-02-12 03:00:00 NR -13.8024 54.6924 main 478 451 _____P________ -1 -13.8024 54.6924 99 5 224
1904042S13056 1904 1 SI MM NOT_NAMED 1904-02-12 06:00:00 NR -14.0000 54.5000 reunion main 451 423 _____O________ -1 -14.0000 54.5000 99 9.90000 6 223
1904042S13056 1904 1 SI MM NOT_NAMED 1904-02-12 09:00:00 NR -14.2346 54.2786 main 423 384 _____P________ -1 -14.2346 54.2786 99 7 222
1904042S13056 1904 1 SI MM NOT_NAMED 1904-02-12 12:00:00 NR -14.5012 54.0348 main 384 357 _____P________ -1 -14.5012 54.0348 99 7 221
1904042S13056 1904 1 SI MM NOT_NAMED 1904-02-12 15:00:00 NR -14.7933 53.7775 main 357 322 _____P________ -1 -14.7933 53.7775 99 8 220
1904042S13056 1904 1 SI MM NOT_NAMED 1904-02-12 18:00:00 NR -15.1039 53.5154 main 322 300 _____P________ -1 -15.1039 53.5154 99 8 218
1904042S13056 1904 1 SI MM NOT_NAMED 1904-02-12 21:00:00 NR -15.4265 53.2576 main 300 270 _____P________ -1 -15.4265 53.2576 99 8 217
1904042S13056 1904 1 SI MM NOT_NAMED 1904-02-13 00:00:00 NR -15.7545 53.0130 main 271 255 _____P________ -1 -15.7545 53.0130 99 8 214
1904042S13056 1904 1 SI MM NOT_NAMED 1904-02-13 03:00:00 NR -16.0812 52.7907 main 258 246 _____P________ -1 -16.0812 52.7907 99 8 212
1904042S13056 1904 1 SI MM NOT_NAMED 1904-02-13 06:00:00 NR -16.4000 52.6000 reunion main 250 246 _____O________ -1 -16.4000 52.6000 99 9.90000 7 208
1904042S13056 1904 1 SI MM NOT_NAMED 1904-02-13 09:00:00 NR -16.6686 52.4602 main 255 245 _____P________ -1 -16.6686 52.4602 99 6 204
1904042S13056 1904 1 SI MM NOT_NAMED 1904-02-13 12:00:00 NR -16.9313 52.3489 main 245 245 _____P________ -1 -16.9313 52.3489 99 6 200
1904042S13056 1904 1 SI MM NOT_NAMED 1904-02-13 15:00:00 NR -17.1919 52.2628 main 261 251 _____P________ -1 -17.1919 52.2628 99 5 195
1904042S13056 1904 1 SI MM NOT_NAMED 1904-02-13 18:00:00 NR -17.4543 52.1988 main 266 266 _____P________ -1 -17.4543 52.1988 99 5 191
1904042S13056 1904 1 SI MM NOT_NAMED 1904-02-13 21:00:00 NR -17.7225 52.1537 main 274 268 _____P________ -1 -17.7225 52.1537 99 6 187
1904042S13056 1904 1 SI MM NOT_NAMED 1904-02-14 00:00:00 NR -18.0002 52.1243 main 277 277 _____P________ -1 -18.0002 52.1243 99 6 184
1904042S13056 1904 1 SI MM NOT_NAMED 1904-02-14 03:00:00 NR -18.2915 52.1075 main 283 283 _____P________ -1 -18.2915 52.1075 99 6 182
1904042S13056 1904 1 SI MM NOT_NAMED 1904-02-14 06:00:00 NR -18.6000 52.1000 reunion main 288 288 _____O________ -1 -18.6000 52.1000 99 9.90000 6 185
1904042S13056 1904 1 SI MM NOT_NAMED 1904-02-14 09:00:00 NR -18.9261 52.0476 main 285 285 _____P________ -1 -18.9261 52.0476 99 7 188
1904042S13056 1904 1 SI MM NOT_NAMED 1904-02-14 12:00:00 NR -19.2677 52.0034 main 300 300 _____P________ -1 -19.2677 52.0034 99 7 186
1904042S13056 1904 1 SI MM NOT_NAMED 1904-02-14 15:00:00 NR -19.6240 51.9724 main 310 310 _____P________ -1 -19.6240 51.9724 99 7 183
1904042S13056 1904 1 SI MM NOT_NAMED 1904-02-14 18:00:00 NR -19.9942 51.9598 main 323 323 _____P________ -1 -19.9942 51.9598 99 8 181
1904042S13056 1904 1 SI MM NOT_NAMED 1904-02-14 21:00:00 NR -20.3777 51.9709 main 336 333 _____P________ -1 -20.3777 51.9709 99 8 177
1904042S13056 1904 1 SI MM NOT_NAMED 1904-02-15 00:00:00 NR -20.7736 52.0110 main 333 321 _____P________ -1 -20.7736 52.0110 99 8 172
1904042S13056 1904 1 SI MM NOT_NAMED 1904-02-15 03:00:00 NR -21.1813 52.0855 main 321 313 _____P________ -1 -21.1813 52.0855 99 9 168
1904042S13056 1904 1 SI MM NOT_NAMED 1904-02-15 06:00:00 NR -21.6000 52.2000 reunion main 315 306 _____O________ -1 -21.6000 52.2000 99 9.90000 9 162
1904042S13056 1904 1 SI MM NOT_NAMED 1904-02-15 09:00:00 NR -22.0804 52.3959 main 310 304 _____P________ -1 -22.0804 52.3959 99 11 158
1904042S13056 1904 1 SI MM NOT_NAMED 1904-02-15 12:00:00 NR -22.5805 52.6382 main 314 304 _____P________ -1 -22.5805 52.6382 99 11 155
1904042S13056 1904 1 SI MM NOT_NAMED 1904-02-15 15:00:00 NR -23.0861 52.9137 main 318 317 _____P________ -1 -23.0861 52.9137 99 11 152
1904042S13056 1904 1 SI MM NOT_NAMED 1904-02-15 18:00:00 NR -23.5829 53.2086 main 335 335 _____P________ -1 -23.5829 53.2086 99 11 151
1904042S13056 1904 1 SI MM NOT_NAMED 1904-02-15 21:00:00 NR -24.0567 53.5092 main 363 358 _____P________ -1 -24.0567 53.5092 99 11 149
1904042S13056 1904 1 SI MM NOT_NAMED 1904-02-16 00:00:00 NR -24.4935 53.8010 main 389 389 _____P________ -1 -24.4935 53.8010 99 10 148
1904042S13056 1904 1 SI MM NOT_NAMED 1904-02-16 03:00:00 NR -24.8792 54.0696 main 420 420 _____P________ -1 -24.8792 54.0696 99 8 147
1904042S13056 1904 1 SI MM NOT_NAMED 1904-02-16 06:00:00 NR -25.2000 54.3000 reunion main 444 444 _____O________ -1 -25.2000 54.3000 99 9.90000 7 147
1904042S13056 1904 1 SI MM NOT_NAMED 1904-02-16 09:00:00 NR -25.4462 54.4808 main 460 460 _____P________ -1 -25.4462 54.4808 99 5 146
1904042S13056 1904 1 SI MM NOT_NAMED 1904-02-16 12:00:00 NR -25.6237 54.6146 main 480 480 _____P________ -1 -25.6237 54.6146 99 4 145
1904042S13056 1904 1 SI MM NOT_NAMED 1904-02-16 15:00:00 NR -25.7425 54.7079 main 489 489 _____P________ -1 -25.7425 54.7079 99 2 144
1904042S13056 1904 1 SI MM NOT_NAMED 1904-02-16 18:00:00 NR -25.8126 54.7672 main 498 498 _____P________ -1 -25.8126 54.7672 99 1 140
1904042S13056 1904 1 SI MM NOT_NAMED 1904-02-16 21:00:00 NR -25.8436 54.7993 main 498 498 _____P________ -1 -25.8436 54.7993 99 1 126
1904042S13056 1904 1 SI MM NOT_NAMED 1904-02-17 00:00:00 NR -25.8453 54.8109 main 498 498 _____P________ -1 -25.8453 54.8109 99 0 0
1904042S13056 1904 1 SI MM NOT_NAMED 1904-02-17 03:00:00 NR -25.8275 54.8089 main 498 498 _____P________ -1 -25.8275 54.8089 99 0 0
1904042S13056 1904 1 SI MM NOT_NAMED 1904-02-17 06:00:00 NR -25.8000 54.8000 reunion main 498 _____O________ -1 -25.8000 54.8000 99 9.90000 1 0

IBTrACS Databaseについて

本データベースは、米国NOAAが公開する1842年以降の世界の熱帯低気圧のベストトラックデータアーカイブInternational Best Track Archive for Climate Stewardship (IBTrACS)を、ウェブで閲覧しやすい形式に変換したものです。

最終更新日:2021-12-08